sensor_id;sensor_type;location;lat;lon;timestamp;P1;durP1;ratioP1;P2;durP2;ratioP2
37905;SDS011;23739;51.448;6.674;2023-04-09T00:00:37;29.25;;;19.17;;
37905;SDS011;23739;51.448;6.674;2023-04-09T00:03:03;28.63;;;19.58;;
37905;SDS011;23739;51.448;6.674;2023-04-09T00:05:29;31.08;;;19.80;;
37905;SDS011;23739;51.448;6.674;2023-04-09T00:07:55;30.23;;;19.30;;
37905;SDS011;23739;51.448;6.674;2023-04-09T00:10:22;30.45;;;20.30;;
37905;SDS011;23739;51.448;6.674;2023-04-09T00:12:48;30.25;;;19.10;;
37905;SDS011;23739;51.448;6.674;2023-04-09T00:15:14;28.15;;;18.38;;
37905;SDS011;23739;51.448;6.674;2023-04-09T00:17:40;28.15;;;19.13;;
37905;SDS011;23739;51.448;6.674;2023-04-09T00:20:07;31.73;;;20.70;;
37905;SDS011;23739;51.448;6.674;2023-04-09T00:22:33;32.05;;;18.80;;
37905;SDS011;23739;51.448;6.674;2023-04-09T00:24:59;29.08;;;18.73;;
37905;SDS011;23739;51.448;6.674;2023-04-09T00:27:25;33.03;;;19.65;;
37905;SDS011;23739;51.448;6.674;2023-04-09T00:29:55;31.27;;;20.17;;
37905;SDS011;23739;51.448;6.674;2023-04-09T00:32:21;29.95;;;19.52;;
37905;SDS011;23739;51.448;6.674;2023-04-09T00:34:47;29.42;;;19.20;;
37905;SDS011;23739;51.448;6.674;2023-04-09T00:37:14;31.65;;;20.80;;
37905;SDS011;23739;51.448;6.674;2023-04-09T00:39:40;29.38;;;20.13;;
37905;SDS011;23739;51.448;6.674;2023-04-09T00:42:06;35.70;;;20.92;;
37905;SDS011;23739;51.448;6.674;2023-04-09T00:44:32;29.45;;;19.65;;
37905;SDS011;23739;51.448;6.674;2023-04-09T00:46:58;28.98;;;19.48;;
37905;SDS011;23739;51.448;6.674;2023-04-09T00:49:25;30.65;;;20.33;;
37905;SDS011;23739;51.448;6.674;2023-04-09T00:51:51;34.53;;;21.65;;
37905;SDS011;23739;51.448;6.674;2023-04-09T00:54:18;31.75;;;19.85;;
37905;SDS011;23739;51.448;6.674;2023-04-09T00:56:44;32.42;;;21.35;;
37905;SDS011;23739;51.448;6.674;2023-04-09T00:59:10;31.02;;;19.60;;
37905;SDS011;23739;51.448;6.674;2023-04-09T01:01:36;33.03;;;20.23;;
37905;SDS011;23739;51.448;6.674;2023-04-09T01:04:02;31.33;;;20.58;;
37905;SDS011;23739;51.448;6.674;2023-04-09T01:06:32;30.55;;;20.67;;
37905;SDS011;23739;51.448;6.674;2023-04-09T01:09:02;30.50;;;19.48;;
37905;SDS011;23739;51.448;6.674;2023-04-09T01:11:46;36.58;;;21.27;;
37905;SDS011;23739;51.448;6.674;2023-04-09T01:14:34;34.17;;;21.10;;
37905;SDS011;23739;51.448;6.674;2023-04-09T01:17:03;34.78;;;21.83;;
37905;SDS011;23739;51.448;6.674;2023-04-09T01:20:13;32.38;;;20.35;;
37905;SDS011;23739;51.448;6.674;2023-04-09T01:25:11;33.17;;;20.48;;
37905;SDS011;23739;51.448;6.674;2023-04-09T01:27:46;35.30;;;22.40;;
37905;SDS011;23739;51.448;6.674;2023-04-09T01:30:20;33.42;;;20.73;;
37905;SDS011;23739;51.448;6.674;2023-04-09T01:32:46;33.65;;;21.08;;
37905;SDS011;23739;51.448;6.674;2023-04-09T01:35:12;36.08;;;20.48;;
37905;SDS011;23739;51.448;6.674;2023-04-09T01:37:39;31.30;;;21.80;;
37905;SDS011;23739;51.448;6.674;2023-04-09T01:40:05;32.28;;;21.30;;
37905;SDS011;23739;51.448;6.674;2023-04-09T01:42:32;31.17;;;20.90;;
37905;SDS011;23739;51.448;6.674;2023-04-09T01:44:58;33.33;;;22.73;;
37905;SDS011;23739;51.448;6.674;2023-04-09T01:47:25;31.20;;;21.10;;
37905;SDS011;23739;51.448;6.674;2023-04-09T01:49:52;36.33;;;22.35;;
37905;SDS011;23739;51.448;6.674;2023-04-09T01:52:19;33.70;;;21.80;;
37905;SDS011;23739;51.448;6.674;2023-04-09T01:54:45;42.42;;;24.45;;
37905;SDS011;23739;51.448;6.674;2023-04-09T01:57:11;35.22;;;22.77;;
37905;SDS011;23739;51.448;6.674;2023-04-09T01:59:37;36.55;;;23.20;;
37905;SDS011;23739;51.448;6.674;2023-04-09T02:02:11;38.20;;;23.98;;
37905;SDS011;23739;51.448;6.674;2023-04-09T02:04:45;39.25;;;23.88;;
37905;SDS011;23739;51.448;6.674;2023-04-09T02:09:57;32.65;;;21.75;;
37905;SDS011;23739;51.448;6.674;2023-04-09T02:12:24;37.47;;;23.65;;
37905;SDS011;23739;51.448;6.674;2023-04-09T02:14:51;37.05;;;22.70;;
37905;SDS011;23739;51.448;6.674;2023-04-09T02:17:18;38.67;;;21.67;;
37905;SDS011;23739;51.448;6.674;2023-04-09T02:19:45;34.70;;;21.95;;
37905;SDS011;23739;51.448;6.674;2023-04-09T02:22:12;36.55;;;22.08;;
37905;SDS011;23739;51.448;6.674;2023-04-09T02:24:38;36.15;;;22.35;;
37905;SDS011;23739;51.448;6.674;2023-04-09T02:27:06;35.10;;;21.30;;
37905;SDS011;23739;51.448;6.674;2023-04-09T02:29:32;34.90;;;22.35;;
37905;SDS011;23739;51.448;6.674;2023-04-09T02:31:58;34.70;;;22.25;;
37905;SDS011;23739;51.448;6.674;2023-04-09T02:34:24;37.25;;;23.33;;
37905;SDS011;23739;51.448;6.674;2023-04-09T02:36:50;36.22;;;22.08;;
37905;SDS011;23739;51.448;6.674;2023-04-09T02:39:17;40.42;;;22.83;;
37905;SDS011;23739;51.448;6.674;2023-04-09T02:41:43;39.70;;;22.85;;
37905;SDS011;23739;51.448;6.674;2023-04-09T02:44:09;37.60;;;24.17;;
37905;SDS011;23739;51.448;6.674;2023-04-09T02:46:35;39.35;;;23.27;;
37905;SDS011;23739;51.448;6.674;2023-04-09T02:49:01;38.40;;;22.45;;
37905;SDS011;23739;51.448;6.674;2023-04-09T02:51:27;37.53;;;23.27;;
37905;SDS011;23739;51.448;6.674;2023-04-09T02:53:53;42.38;;;24.63;;
37905;SDS011;23739;51.448;6.674;2023-04-09T02:56:20;35.90;;;23.58;;
37905;SDS011;23739;51.448;6.674;2023-04-09T02:58:46;36.83;;;22.95;;
37905;SDS011;23739;51.448;6.674;2023-04-09T03:01:13;37.67;;;24.10;;
37905;SDS011;23739;51.448;6.674;2023-04-09T03:03:39;43.78;;;24.95;;
37905;SDS011;23739;51.448;6.674;2023-04-09T03:06:06;33.50;;;22.17;;
37905;SDS011;23739;51.448;6.674;2023-04-09T03:08:32;39.70;;;22.52;;
37905;SDS011;23739;51.448;6.674;2023-04-09T03:10:59;36.95;;;22.67;;
37905;SDS011;23739;51.448;6.674;2023-04-09T03:13:26;38.30;;;23.60;;
37905;SDS011;23739;51.448;6.674;2023-04-09T03:15:52;39.38;;;25.25;;
37905;SDS011;23739;51.448;6.674;2023-04-09T03:18:18;41.08;;;25.88;;
37905;SDS011;23739;51.448;6.674;2023-04-09T03:20:45;37.85;;;23.60;;
37905;SDS011;23739;51.448;6.674;2023-04-09T03:23:11;39.25;;;25.05;;
37905;SDS011;23739;51.448;6.674;2023-04-09T03:25:37;41.10;;;23.25;;
37905;SDS011;23739;51.448;6.674;2023-04-09T03:28:03;40.47;;;22.45;;
37905;SDS011;23739;51.448;6.674;2023-04-09T03:30:29;40.08;;;24.27;;
37905;SDS011;23739;51.448;6.674;2023-04-09T03:32:56;40.28;;;23.55;;
37905;SDS011;23739;51.448;6.674;2023-04-09T03:35:23;41.05;;;24.75;;
37905;SDS011;23739;51.448;6.674;2023-04-09T03:37:49;40.70;;;23.98;;
37905;SDS011;23739;51.448;6.674;2023-04-09T03:40:15;37.47;;;24.05;;
37905;SDS011;23739;51.448;6.674;2023-04-09T03:42:42;44.00;;;25.92;;
37905;SDS011;23739;51.448;6.674;2023-04-09T03:45:08;42.38;;;24.67;;
37905;SDS011;23739;51.448;6.674;2023-04-09T03:47:34;42.38;;;24.63;;
37905;SDS011;23739;51.448;6.674;2023-04-09T03:50:00;36.03;;;23.70;;
37905;SDS011;23739;51.448;6.674;2023-04-09T03:52:26;43.05;;;26.95;;
37905;SDS011;23739;51.448;6.674;2023-04-09T03:54:52;44.13;;;26.95;;
37905;SDS011;23739;51.448;6.674;2023-04-09T03:57:19;41.38;;;24.75;;
37905;SDS011;23739;51.448;6.674;2023-04-09T03:59:45;46.25;;;26.70;;
37905;SDS011;23739;51.448;6.674;2023-04-09T04:02:12;43.42;;;26.83;;
37905;SDS011;23739;51.448;6.674;2023-04-09T04:04:38;43.90;;;26.98;;
37905;SDS011;23739;51.448;6.674;2023-04-09T04:07:04;45.22;;;28.58;;
37905;SDS011;23739;51.448;6.674;2023-04-09T04:09:31;47.08;;;27.30;;
37905;SDS011;23739;51.448;6.674;2023-04-09T04:11:57;45.88;;;26.65;;
37905;SDS011;23739;51.448;6.674;2023-04-09T04:14:26;47.00;;;29.48;;
37905;SDS011;23739;51.448;6.674;2023-04-09T04:16:52;45.35;;;28.30;;
37905;SDS011;23739;51.448;6.674;2023-04-09T04:19:18;42.15;;;26.92;;
37905;SDS011;23739;51.448;6.674;2023-04-09T04:21:44;49.10;;;27.75;;
37905;SDS011;23739;51.448;6.674;2023-04-09T04:24:10;43.55;;;27.88;;
37905;SDS011;23739;51.448;6.674;2023-04-09T04:26:38;41.05;;;26.23;;
37905;SDS011;23739;51.448;6.674;2023-04-09T04:29:04;45.30;;;29.10;;
37905;SDS011;23739;51.448;6.674;2023-04-09T04:31:30;46.80;;;26.83;;
37905;SDS011;23739;51.448;6.674;2023-04-09T04:33:56;39.05;;;25.17;;
37905;SDS011;23739;51.448;6.674;2023-04-09T04:36:22;42.88;;;27.08;;
37905;SDS011;23739;51.448;6.674;2023-04-09T04:38:48;42.70;;;25.17;;
37905;SDS011;23739;51.448;6.674;2023-04-09T04:41:14;41.28;;;26.15;;
37905;SDS011;23739;51.448;6.674;2023-04-09T04:43:40;42.80;;;25.77;;
37905;SDS011;23739;51.448;6.674;2023-04-09T04:46:06;43.85;;;25.23;;
37905;SDS011;23739;51.448;6.674;2023-04-09T04:48:32;48.20;;;27.48;;
37905;SDS011;23739;51.448;6.674;2023-04-09T04:50:59;39.78;;;26.85;;
37905;SDS011;23739;51.448;6.674;2023-04-09T04:53:26;44.55;;;26.73;;
37905;SDS011;23739;51.448;6.674;2023-04-09T04:55:52;38.90;;;24.77;;
37905;SDS011;23739;51.448;6.674;2023-04-09T04:58:18;42.83;;;24.98;;
37905;SDS011;23739;51.448;6.674;2023-04-09T05:00:44;41.60;;;26.13;;
37905;SDS011;23739;51.448;6.674;2023-04-09T05:03:11;43.88;;;24.15;;
37905;SDS011;23739;51.448;6.674;2023-04-09T05:05:37;40.90;;;24.45;;
37905;SDS011;23739;51.448;6.674;2023-04-09T05:08:03;36.03;;;23.02;;
37905;SDS011;23739;51.448;6.674;2023-04-09T05:10:29;45.35;;;26.38;;
37905;SDS011;23739;51.448;6.674;2023-04-09T05:12:55;40.38;;;24.73;;
37905;SDS011;23739;51.448;6.674;2023-04-09T05:15:21;44.38;;;25.30;;
37905;SDS011;23739;51.448;6.674;2023-04-09T05:17:47;38.78;;;25.48;;
37905;SDS011;23739;51.448;6.674;2023-04-09T05:20:14;37.58;;;25.55;;
37905;SDS011;23739;51.448;6.674;2023-04-09T05:22:40;39.83;;;24.35;;
37905;SDS011;23739;51.448;6.674;2023-04-09T05:25:06;45.35;;;26.83;;
37905;SDS011;23739;51.448;6.674;2023-04-09T05:27:33;43.92;;;25.60;;
37905;SDS011;23739;51.448;6.674;2023-04-09T05:29:59;41.17;;;24.55;;
37905;SDS011;23739;51.448;6.674;2023-04-09T05:32:25;43.60;;;24.58;;
37905;SDS011;23739;51.448;6.674;2023-04-09T05:34:51;44.30;;;25.25;;
37905;SDS011;23739;51.448;6.674;2023-04-09T05:37:17;43.25;;;25.67;;
37905;SDS011;23739;51.448;6.674;2023-04-09T05:39:44;44.15;;;25.55;;
37905;SDS011;23739;51.448;6.674;2023-04-09T05:42:10;44.00;;;24.60;;
37905;SDS011;23739;51.448;6.674;2023-04-09T05:44:36;46.83;;;26.02;;
37905;SDS011;23739;51.448;6.674;2023-04-09T05:47:02;43.15;;;26.50;;
37905;SDS011;23739;51.448;6.674;2023-04-09T05:49:29;44.72;;;26.05;;
37905;SDS011;23739;51.448;6.674;2023-04-09T05:51:55;41.08;;;25.23;;
37905;SDS011;23739;51.448;6.674;2023-04-09T05:54:21;41.20;;;25.08;;
37905;SDS011;23739;51.448;6.674;2023-04-09T05:56:47;44.42;;;25.95;;
37905;SDS011;23739;51.448;6.674;2023-04-09T05:59:13;42.65;;;27.33;;
37905;SDS011;23739;51.448;6.674;2023-04-09T06:01:39;41.92;;;24.52;;
37905;SDS011;23739;51.448;6.674;2023-04-09T06:04:05;43.17;;;26.23;;
37905;SDS011;23739;51.448;6.674;2023-04-09T06:06:31;42.97;;;25.95;;
37905;SDS011;23739;51.448;6.674;2023-04-09T06:08:58;38.55;;;24.70;;
37905;SDS011;23739;51.448;6.674;2023-04-09T06:11:24;40.80;;;24.73;;
37905;SDS011;23739;51.448;6.674;2023-04-09T06:13:51;39.47;;;23.40;;
37905;SDS011;23739;51.448;6.674;2023-04-09T06:16:17;49.67;;;26.55;;
37905;SDS011;23739;51.448;6.674;2023-04-09T06:18:43;38.20;;;24.80;;
37905;SDS011;23739;51.448;6.674;2023-04-09T06:21:10;34.53;;;22.98;;
37905;SDS011;23739;51.448;6.674;2023-04-09T06:23:37;35.65;;;23.15;;
37905;SDS011;23739;51.448;6.674;2023-04-09T06:26:03;37.30;;;23.60;;
37905;SDS011;23739;51.448;6.674;2023-04-09T06:28:31;39.65;;;23.90;;
37905;SDS011;23739;51.448;6.674;2023-04-09T06:30:57;39.13;;;23.05;;
37905;SDS011;23739;51.448;6.674;2023-04-09T06:33:23;37.55;;;23.90;;
37905;SDS011;23739;51.448;6.674;2023-04-09T06:35:50;32.72;;;22.02;;
37905;SDS011;23739;51.448;6.674;2023-04-09T06:38:16;36.38;;;24.88;;
37905;SDS011;23739;51.448;6.674;2023-04-09T06:40:42;38.83;;;23.13;;
37905;SDS011;23739;51.448;6.674;2023-04-09T06:43:08;38.53;;;22.48;;
37905;SDS011;23739;51.448;6.674;2023-04-09T06:45:35;35.22;;;23.05;;
37905;SDS011;23739;51.448;6.674;2023-04-09T06:48:02;37.38;;;23.13;;
37905;SDS011;23739;51.448;6.674;2023-04-09T06:50:28;33.92;;;21.95;;
37905;SDS011;23739;51.448;6.674;2023-04-09T06:52:54;35.65;;;23.25;;
37905;SDS011;23739;51.448;6.674;2023-04-09T06:55:20;32.08;;;21.25;;
37905;SDS011;23739;51.448;6.674;2023-04-09T06:57:47;31.83;;;21.70;;
37905;SDS011;23739;51.448;6.674;2023-04-09T07:00:13;35.15;;;22.73;;
37905;SDS011;23739;51.448;6.674;2023-04-09T07:02:39;30.52;;;20.50;;
37905;SDS011;23739;51.448;6.674;2023-04-09T07:05:05;33.45;;;22.15;;
37905;SDS011;23739;51.448;6.674;2023-04-09T07:07:32;31.58;;;21.17;;
37905;SDS011;23739;51.448;6.674;2023-04-09T07:09:58;33.10;;;20.13;;
37905;SDS011;23739;51.448;6.674;2023-04-09T07:12:31;32.20;;;20.52;;
37905;SDS011;23739;51.448;6.674;2023-04-09T07:15:00;28.98;;;19.45;;
37905;SDS011;23739;51.448;6.674;2023-04-09T07:17:27;31.75;;;19.55;;
37905;SDS011;23739;51.448;6.674;2023-04-09T07:19:53;29.15;;;19.33;;
37905;SDS011;23739;51.448;6.674;2023-04-09T07:22:20;27.75;;;18.33;;
37905;SDS011;23739;51.448;6.674;2023-04-09T07:24:46;32.40;;;21.38;;
37905;SDS011;23739;51.448;6.674;2023-04-09T07:27:21;30.13;;;20.33;;
37905;SDS011;23739;51.448;6.674;2023-04-09T07:29:47;27.02;;;18.75;;
37905;SDS011;23739;51.448;6.674;2023-04-09T07:32:13;27.73;;;19.30;;
37905;SDS011;23739;51.448;6.674;2023-04-09T07:34:43;29.83;;;20.27;;
37905;SDS011;23739;51.448;6.674;2023-04-09T07:37:09;31.77;;;20.77;;
37905;SDS011;23739;51.448;6.674;2023-04-09T07:39:36;32.05;;;20.05;;
37905;SDS011;23739;51.448;6.674;2023-04-09T07:42:03;30.83;;;19.63;;
37905;SDS011;23739;51.448;6.674;2023-04-09T07:44:32;30.27;;;19.73;;
37905;SDS011;23739;51.448;6.674;2023-04-09T07:46:58;29.55;;;20.55;;
37905;SDS011;23739;51.448;6.674;2023-04-09T07:49:24;32.03;;;20.52;;
37905;SDS011;23739;51.448;6.674;2023-04-09T07:51:51;29.88;;;20.70;;
37905;SDS011;23739;51.448;6.674;2023-04-09T07:54:17;26.33;;;18.83;;
37905;SDS011;23739;51.448;6.674;2023-04-09T07:56:45;26.25;;;18.27;;
37905;SDS011;23739;51.448;6.674;2023-04-09T07:59:11;26.55;;;17.90;;
37905;SDS011;23739;51.448;6.674;2023-04-09T08:01:39;28.27;;;18.98;;
37905;SDS011;23739;51.448;6.674;2023-04-09T08:04:06;29.65;;;19.90;;
37905;SDS011;23739;51.448;6.674;2023-04-09T08:06:32;20.77;;;14.63;;
37905;SDS011;23739;51.448;6.674;2023-04-09T08:08:58;21.92;;;14.80;;
37905;SDS011;23739;51.448;6.674;2023-04-09T08:11:25;26.40;;;16.65;;
37905;SDS011;23739;51.448;6.674;2023-04-09T08:13:51;23.88;;;17.05;;
37905;SDS011;23739;51.448;6.674;2023-04-09T08:16:17;27.63;;;16.27;;
37905;SDS011;23739;51.448;6.674;2023-04-09T08:18:45;19.02;;;12.40;;
37905;SDS011;23739;51.448;6.674;2023-04-09T08:21:11;18.50;;;12.52;;
37905;SDS011;23739;51.448;6.674;2023-04-09T08:23:37;18.40;;;11.30;;
37905;SDS011;23739;51.448;6.674;2023-04-09T08:26:03;16.30;;;11.65;;
37905;SDS011;23739;51.448;6.674;2023-04-09T08:28:30;16.45;;;12.82;;
37905;SDS011;23739;51.448;6.674;2023-04-09T08:30:56;17.05;;;11.02;;
37905;SDS011;23739;51.448;6.674;2023-04-09T08:33:22;15.38;;;11.02;;
37905;SDS011;23739;51.448;6.674;2023-04-09T08:35:48;16.92;;;11.63;;
37905;SDS011;23739;51.448;6.674;2023-04-09T08:38:14;15.45;;;11.13;;
37905;SDS011;23739;51.448;6.674;2023-04-09T08:40:41;14.40;;;11.50;;
37905;SDS011;23739;51.448;6.674;2023-04-09T08:43:07;16.67;;;11.02;;
37905;SDS011;23739;51.448;6.674;2023-04-09T08:45:34;15.38;;;10.20;;
37905;SDS011;23739;51.448;6.674;2023-04-09T08:48:01;13.57;;;10.05;;
37905;SDS011;23739;51.448;6.674;2023-04-09T08:50:29;13.23;;;9.63;;
37905;SDS011;23739;51.448;6.674;2023-04-09T08:52:55;13.63;;;9.18;;
37905;SDS011;23739;51.448;6.674;2023-04-09T08:55:21;13.68;;;8.73;;
37905;SDS011;23739;51.448;6.674;2023-04-09T08:57:48;12.25;;;8.32;;
37905;SDS011;23739;51.448;6.674;2023-04-09T09:00:14;13.07;;;8.80;;
37905;SDS011;23739;51.448;6.674;2023-04-09T09:08:24;11.57;;;8.63;;
37905;SDS011;23739;51.448;6.674;2023-04-09T09:10:51;11.40;;;7.78;;
37905;SDS011;23739;51.448;6.674;2023-04-09T09:13:18;10.02;;;6.82;;
37905;SDS011;23739;51.448;6.674;2023-04-09T09:15:45;8.73;;;6.38;;
37905;SDS011;23739;51.448;6.674;2023-04-09T09:18:13;14.50;;;5.95;;
37905;SDS011;23739;51.448;6.674;2023-04-09T09:20:39;7.13;;;5.32;;
37905;SDS011;23739;51.448;6.674;2023-04-09T09:23:06;8.18;;;6.18;;
37905;SDS011;23739;51.448;6.674;2023-04-09T09:25:36;9.82;;;6.80;;
37905;SDS011;23739;51.448;6.674;2023-04-09T09:28:09;12.68;;;8.88;;
37905;SDS011;23739;51.448;6.674;2023-04-09T09:30:36;6.97;;;5.28;;
37905;SDS011;23739;51.448;6.674;2023-04-09T09:33:09;11.80;;;8.02;;
37905;SDS011;23739;51.448;6.674;2023-04-09T09:35:48;9.93;;;7.18;;
37905;SDS011;23739;51.448;6.674;2023-04-09T09:38:15;9.75;;;7.25;;
37905;SDS011;23739;51.448;6.674;2023-04-09T09:40:42;9.55;;;6.47;;
37905;SDS011;23739;51.448;6.674;2023-04-09T09:43:08;8.95;;;6.65;;
37905;SDS011;23739;51.448;6.674;2023-04-09T09:45:35;8.82;;;6.00;;
37905;SDS011;23739;51.448;6.674;2023-04-09T09:48:03;7.50;;;5.72;;
37905;SDS011;23739;51.448;6.674;2023-04-09T09:50:30;6.65;;;4.75;;
37905;SDS011;23739;51.448;6.674;2023-04-09T09:53:05;8.20;;;5.68;;
37905;SDS011;23739;51.448;6.674;2023-04-09T09:55:33;7.43;;;5.80;;
37905;SDS011;23739;51.448;6.674;2023-04-09T09:58:02;6.78;;;4.70;;
37905;SDS011;23739;51.448;6.674;2023-04-09T10:00:30;6.00;;;4.85;;
37905;SDS011;23739;51.448;6.674;2023-04-09T10:03:04;10.57;;;6.65;;
37905;SDS011;23739;51.448;6.674;2023-04-09T10:05:32;6.30;;;4.97;;
37905;SDS011;23739;51.448;6.674;2023-04-09T10:08:00;5.85;;;4.95;;
37905;SDS011;23739;51.448;6.674;2023-04-09T10:10:28;6.10;;;4.80;;
37905;SDS011;23739;51.448;6.674;2023-04-09T10:12:55;8.35;;;5.70;;
37905;SDS011;23739;51.448;6.674;2023-04-09T10:15:22;6.88;;;5.32;;
37905;SDS011;23739;51.448;6.674;2023-04-09T10:17:48;8.02;;;5.25;;
37905;SDS011;23739;51.448;6.674;2023-04-09T10:20:17;7.00;;;5.10;;
37905;SDS011;23739;51.448;6.674;2023-04-09T10:22:45;8.65;;;5.72;;
37905;SDS011;23739;51.448;6.674;2023-04-09T10:25:12;7.78;;;5.30;;
37905;SDS011;23739;51.448;6.674;2023-04-09T10:27:39;8.70;;;6.47;;
37905;SDS011;23739;51.448;6.674;2023-04-09T10:30:06;8.70;;;6.05;;
37905;SDS011;23739;51.448;6.674;2023-04-09T10:32:35;9.68;;;5.55;;
37905;SDS011;23739;51.448;6.674;2023-04-09T10:35:01;8.30;;;6.82;;
37905;SDS011;23739;51.448;6.674;2023-04-09T10:37:28;7.65;;;5.30;;
37905;SDS011;23739;51.448;6.674;2023-04-09T10:39:54;6.53;;;5.22;;
37905;SDS011;23739;51.448;6.674;2023-04-09T10:42:22;9.00;;;6.10;;
37905;SDS011;23739;51.448;6.674;2023-04-09T10:45:10;6.90;;;5.35;;
37905;SDS011;23739;51.448;6.674;2023-04-09T10:47:36;7.30;;;5.95;;
37905;SDS011;23739;51.448;6.674;2023-04-09T10:50:20;8.95;;;5.13;;
37905;SDS011;23739;51.448;6.674;2023-04-09T10:52:46;6.03;;;4.90;;
37905;SDS011;23739;51.448;6.674;2023-04-09T10:55:28;5.80;;;4.47;;
37905;SDS011;23739;51.448;6.674;2023-04-09T10:57:55;5.97;;;4.57;;
37905;SDS011;23739;51.448;6.674;2023-04-09T11:00:21;7.00;;;4.55;;
37905;SDS011;23739;51.448;6.674;2023-04-09T11:02:53;7.18;;;5.53;;
37905;SDS011;23739;51.448;6.674;2023-04-09T11:05:32;5.95;;;4.60;;
37905;SDS011;23739;51.448;6.674;2023-04-09T11:10:25;5.75;;;4.38;;
37905;SDS011;23739;51.448;6.674;2023-04-09T11:12:52;7.38;;;5.28;;
37905;SDS011;23739;51.448;6.674;2023-04-09T11:15:18;7.30;;;4.53;;
37905;SDS011;23739;51.448;6.674;2023-04-09T11:17:45;6.97;;;5.03;;
37905;SDS011;23739;51.448;6.674;2023-04-09T11:20:12;5.18;;;4.32;;
37905;SDS011;23739;51.448;6.674;2023-04-09T11:22:39;6.75;;;4.18;;
37905;SDS011;23739;51.448;6.674;2023-04-09T11:25:05;6.38;;;3.85;;
37905;SDS011;23739;51.448;6.674;2023-04-09T11:27:38;8.25;;;4.30;;
37905;SDS011;23739;51.448;6.674;2023-04-09T11:30:04;5.20;;;4.03;;
37905;SDS011;23739;51.448;6.674;2023-04-09T11:32:31;6.70;;;4.93;;
37905;SDS011;23739;51.448;6.674;2023-04-09T11:34:57;8.23;;;4.22;;
37905;SDS011;23739;51.448;6.674;2023-04-09T11:37:24;5.15;;;4.18;;
37905;SDS011;23739;51.448;6.674;2023-04-09T11:39:50;4.57;;;3.42;;
37905;SDS011;23739;51.448;6.674;2023-04-09T11:42:18;4.63;;;3.67;;
37905;SDS011;23739;51.448;6.674;2023-04-09T11:44:45;5.57;;;4.70;;
37905;SDS011;23739;51.448;6.674;2023-04-09T11:47:12;5.70;;;4.47;;
37905;SDS011;23739;51.448;6.674;2023-04-09T11:49:38;6.93;;;5.03;;
37905;SDS011;23739;51.448;6.674;2023-04-09T11:52:05;5.80;;;4.60;;
37905;SDS011;23739;51.448;6.674;2023-04-09T11:54:34;6.93;;;4.85;;
37905;SDS011;23739;51.448;6.674;2023-04-09T11:57:04;5.70;;;4.50;;
37905;SDS011;23739;51.448;6.674;2023-04-09T11:59:30;6.05;;;4.40;;
37905;SDS011;23739;51.448;6.674;2023-04-09T12:01:57;6.38;;;4.90;;
37905;SDS011;23739;51.448;6.674;2023-04-09T12:04:23;6.03;;;4.72;;
37905;SDS011;23739;51.448;6.674;2023-04-09T12:06:49;6.93;;;4.93;;
37905;SDS011;23739;51.448;6.674;2023-04-09T12:09:15;5.65;;;4.43;;
37905;SDS011;23739;51.448;6.674;2023-04-09T12:11:42;5.60;;;4.80;;
37905;SDS011;23739;51.448;6.674;2023-04-09T12:14:12;6.20;;;5.47;;
37905;SDS011;23739;51.448;6.674;2023-04-09T12:16:40;6.32;;;4.55;;
37905;SDS011;23739;51.448;6.674;2023-04-09T12:19:08;5.43;;;4.90;;
37905;SDS011;23739;51.448;6.674;2023-04-09T12:21:47;6.30;;;5.18;;
37905;SDS011;23739;51.448;6.674;2023-04-09T12:24:14;6.28;;;5.38;;
37905;SDS011;23739;51.448;6.674;2023-04-09T12:26:41;6.15;;;5.03;;
37905;SDS011;23739;51.448;6.674;2023-04-09T12:29:07;6.90;;;5.30;;
37905;SDS011;23739;51.448;6.674;2023-04-09T12:31:33;5.93;;;5.00;;
37905;SDS011;23739;51.448;6.674;2023-04-09T12:34:00;7.65;;;4.70;;
37905;SDS011;23739;51.448;6.674;2023-04-09T12:36:26;5.72;;;4.60;;
37905;SDS011;23739;51.448;6.674;2023-04-09T12:38:52;5.07;;;4.35;;
37905;SDS011;23739;51.448;6.674;2023-04-09T12:41:18;5.90;;;4.95;;
37905;SDS011;23739;51.448;6.674;2023-04-09T12:43:45;5.50;;;4.68;;
37905;SDS011;23739;51.448;6.674;2023-04-09T12:46:12;5.45;;;4.30;;
37905;SDS011;23739;51.448;6.674;2023-04-09T12:48:38;4.70;;;3.83;;
37905;SDS011;23739;51.448;6.674;2023-04-09T12:51:04;5.68;;;4.63;;
37905;SDS011;23739;51.448;6.674;2023-04-09T12:53:31;6.22;;;5.28;;
37905;SDS011;23739;51.448;6.674;2023-04-09T12:55:57;6.07;;;4.07;;
37905;SDS011;23739;51.448;6.674;2023-04-09T12:58:23;5.93;;;4.97;;
37905;SDS011;23739;51.448;6.674;2023-04-09T13:00:49;6.65;;;4.68;;
37905;SDS011;23739;51.448;6.674;2023-04-09T13:03:17;5.43;;;4.53;;
37905;SDS011;23739;51.448;6.674;2023-04-09T13:05:43;5.05;;;4.55;;
37905;SDS011;23739;51.448;6.674;2023-04-09T13:08:09;5.93;;;5.28;;
37905;SDS011;23739;51.448;6.674;2023-04-09T13:10:35;6.03;;;4.75;;
37905;SDS011;23739;51.448;6.674;2023-04-09T13:13:02;5.15;;;4.55;;
37905;SDS011;23739;51.448;6.674;2023-04-09T13:15:28;5.13;;;4.63;;
37905;SDS011;23739;51.448;6.674;2023-04-09T13:17:54;6.43;;;5.38;;
37905;SDS011;23739;51.448;6.674;2023-04-09T13:20:21;5.82;;;5.10;;
37905;SDS011;23739;51.448;6.674;2023-04-09T13:22:47;5.07;;;4.15;;
37905;SDS011;23739;51.448;6.674;2023-04-09T13:25:13;5.00;;;4.40;;
37905;SDS011;23739;51.448;6.674;2023-04-09T13:27:40;4.80;;;4.30;;
37905;SDS011;23739;51.448;6.674;2023-04-09T13:30:06;5.25;;;4.53;;
37905;SDS011;23739;51.448;6.674;2023-04-09T13:32:33;6.70;;;4.40;;
37905;SDS011;23739;51.448;6.674;2023-04-09T13:34:59;7.10;;;4.82;;
37905;SDS011;23739;51.448;6.674;2023-04-09T13:37:25;6.55;;;5.13;;
37905;SDS011;23739;51.448;6.674;2023-04-09T13:39:51;5.70;;;5.10;;
37905;SDS011;23739;51.448;6.674;2023-04-09T13:42:18;5.82;;;5.13;;
37905;SDS011;23739;51.448;6.674;2023-04-09T13:44:44;6.13;;;4.70;;
37905;SDS011;23739;51.448;6.674;2023-04-09T13:47:11;6.07;;;4.95;;
37905;SDS011;23739;51.448;6.674;2023-04-09T13:49:37;5.97;;;5.25;;
37905;SDS011;23739;51.448;6.674;2023-04-09T13:52:04;6.50;;;5.32;;
37905;SDS011;23739;51.448;6.674;2023-04-09T13:54:30;4.45;;;4.00;;
37905;SDS011;23739;51.448;6.674;2023-04-09T13:56:57;5.82;;;5.10;;
37905;SDS011;23739;51.448;6.674;2023-04-09T13:59:23;5.35;;;4.82;;
37905;SDS011;23739;51.448;6.674;2023-04-09T14:01:50;6.85;;;5.13;;
37905;SDS011;23739;51.448;6.674;2023-04-09T14:04:16;6.13;;;5.53;;
37905;SDS011;23739;51.448;6.674;2023-04-09T14:06:43;5.80;;;5.00;;
37905;SDS011;23739;51.448;6.674;2023-04-09T14:09:09;5.18;;;4.50;;
37905;SDS011;23739;51.448;6.674;2023-04-09T14:11:35;4.97;;;4.57;;
37905;SDS011;23739;51.448;6.674;2023-04-09T14:14:01;5.85;;;5.22;;
37905;SDS011;23739;51.448;6.674;2023-04-09T14:16:28;5.88;;;5.20;;
37905;SDS011;23739;51.448;6.674;2023-04-09T14:18:55;5.53;;;4.60;;
37905;SDS011;23739;51.448;6.674;2023-04-09T14:21:21;5.43;;;4.60;;
37905;SDS011;23739;51.448;6.674;2023-04-09T14:23:47;5.75;;;4.75;;
37905;SDS011;23739;51.448;6.674;2023-04-09T14:26:13;6.60;;;4.68;;
37905;SDS011;23739;51.448;6.674;2023-04-09T14:28:40;5.25;;;4.40;;
37905;SDS011;23739;51.448;6.674;2023-04-09T14:31:07;5.65;;;5.00;;
37905;SDS011;23739;51.448;6.674;2023-04-09T14:33:33;4.80;;;4.32;;
37905;SDS011;23739;51.448;6.674;2023-04-09T14:35:59;4.13;;;3.72;;
37905;SDS011;23739;51.448;6.674;2023-04-09T14:38:26;4.82;;;4.20;;
37905;SDS011;23739;51.448;6.674;2023-04-09T14:40:52;5.68;;;4.55;;
37905;SDS011;23739;51.448;6.674;2023-04-09T14:43:18;5.85;;;5.03;;